Time;durP1;ratioP1;P1;durP2;ratioP2;P2;SDS_P1;SDS_P2;PMS_P1;PMS_P2;Temp;Humidity;BMP_temperature;BMP_pressure;BME280_temperature;BME280_humidity;BME280_pressure;Samples;Min_cycle;Max_cycle;Signal;HPM_P1;HPM_P2
2023/10/04 04:07:38;;;;;;;3.20;1.80;;;18.60;81.60;;;;;;4789593;30;20043;-95
2023/10/04 04:20:42;;;;;;;3.47;1.95;;;18.60;81.30;;;;;;4881940;29;20040;-96
2023/10/04 05:26:35;;;;;;;3.00;1.40;;;18.60;80.20;;;;;;4849086;29;20066;-95
2023/10/04 05:44:25;;;;;;;3.28;1.70;;;18.50;79.90;;;;;;4811023;29;20031;-95
2023/10/04 05:54:46;;;;;;;4.60;1.90;;;18.50;79.70;;;;;;4802901;30;20036;-96
2023/10/04 06:01:09;;;;;;;6.20;2.05;;;18.50;79.60;;;;;;4776521;30;20103;-96
2023/10/04 06:18:07;;;;;;;;;;;;;;;;;;;;;
2023/10/04 06:35:22;;;;;;;;;;;;;;;;;;;;;
2023/10/04 06:42:07;;;;;;;6.35;2.05;;;18.50;79.50;;;;;;4780965;30;20035;-96
2023/10/04 06:44:46;;;;;;;9.32;1.95;;;18.60;79.70;;;;;;4765427;30;20099;-96
2023/10/04 06:47:27;;;;;;;6.72;1.73;;;18.60;79.70;;;;;;4770320;30;20153;-96
2023/10/04 06:53:49;;;;;;;5.07;1.88;;;18.60;80.60;;;;;;4779757;30;20029;-95
2023/10/04 07:00:23;;;;;;;3.15;1.40;;;18.50;79.90;;;;;;4672730;30;20149;-95
2023/10/04 07:03:14;;;;;;;6.75;2.50;;;18.60;79.90;;;;;;4675807;30;20031;-94
2023/10/04 07:05:55;;;;;;;4.22;1.60;;;18.60;80.00;;;;;;4695762;30;20053;-96
2023/10/04 07:08:55;;;;;;;;;;;;;;;;;;;;;
2023/10/04 07:14:53;;;;;;;7.43;2.17;;;18.60;80.00;;;;;;4722162;30;20122;-93
2023/10/04 07:27:50;;;;;;;7.60;2.33;;;18.50;80.00;;;;;;4871867;29;20028;-96
2023/10/04 07:30:57;;;;;;;9.65;2.00;;;18.60;80.00;;;;;;4867687;29;20055;-96
2023/10/04 07:37:26;;;;;;;6.22;2.00;;;18.60;80.00;;;;;;4844592;29;20112;-96
2023/10/04 07:40:09;;;;;;;8.15;2.58;;;18.60;80.00;;;;;;4832790;29;20105;-95
2023/10/04 07:43:13;;;;;;;;;;;;;;;;;;;;;
2023/10/04 07:51:48;;;;;;;5.32;1.98;;;18.60;80.00;;;;;;5123058;22;20048;-94
2023/10/04 07:58:21;;;;;;;5.07;2.15;;;18.60;80.10;;;;;;4905645;29;20044;-96
2023/10/04 08:01:02;;;;;;;;;;;18.60;80.00;;;;;;4911616;29;20133;-96
2023/10/04 08:03:29;;;;;;;7.70;1.73;;;18.60;80.00;;;;;;4886967;29;20020;-96
2023/10/04 08:06:11;;;;;;;9.38;2.22;;;18.60;80.00;;;;;;4914401;29;20032;-95
2023/10/04 08:08:42;;;;;;;8.07;2.10;;;18.60;80.00;;;;;;4891410;29;20180;-96
2023/10/04 08:11:10;;;;;;;7.05;1.45;;;18.60;80.10;;;;;;4884637;29;20038;-96
2023/10/04 08:13:36;;;;;;;6.10;1.85;;;19.10;80.40;;;;;;4887520;29;20133;-96
2023/10/04 08:16:03;;;;;;;4.90;1.85;;;18.60;80.00;;;;;;4885369;29;20037;-96
2023/10/04 08:18:31;;;;;;;2.90;1.77;;;18.60;80.10;;;;;;4890846;29;20031;-96
2023/10/04 08:21:20;;;;;;;6.22;1.85;;;18.60;80.10;;;;;;4885412;29;20057;-94
2023/10/04 08:23:49;;;;;;;7.72;2.30;;;18.60;80.10;;;;;;4885931;29;20135;-96
2023/10/04 08:26:16;;;;;;;2.55;1.50;;;18.60;80.20;;;;;;4884633;29;20139;-96
2023/10/04 08:28:42;;;;;;;6.93;1.90;;;18.60;80.30;;;;;;4918347;29;20031;-96
2023/10/04 08:31:16;;;;;;;1.25;1.15;;;18.60;80.20;;;;;;4926736;29;20068;-96
2023/10/04 08:33:43;;;;;;;10.52;1.45;;;18.70;80.30;;;;;;4961242;28;20034;-96
2023/10/04 08:36:18;;;;;;;4.70;1.10;;;18.70;80.30;;;;;;5004888;28;20112;-96
2023/10/04 08:38:48;;;;;;;2.33;1.00;;;18.60;80.20;;;;;;5009081;28;20021;-96
2023/10/04 08:41:16;;;;;;;3.10;1.27;;;18.70;80.40;;;;;;5007394;28;20112;-95
2023/10/04 08:43:43;;;;;;;5.05;1.52;;;18.60;80.20;;;;;;5004127;28;20030;-96
2023/10/04 08:46:11;;;;;;;3.78;1.50;;;18.70;80.30;;;;;;5023524;28;20056;-95
2023/10/04 08:48:41;;;;;;;2.97;1.00;;;18.60;80.30;;;;;;5019542;28;20034;-96
2023/10/04 08:51:28;;;;;;;5.85;1.73;;;18.70;80.10;;;;;;5011295;28;20033;-96
2023/10/04 08:54:09;;;;;;;3.33;1.63;;;18.60;80.30;;;;;;5014886;28;20045;-94
2023/10/04 08:56:58;;;;;;;11.15;1.52;;;18.60;81.00;;;;;;5014663;28;20030;-93
2023/10/04 08:59:28;;;;;;;3.88;1.45;;;18.60;80.20;;;;;;5031558;28;20057;-93
2023/10/04 09:01:59;;;;;;;1.95;1.23;;;18.70;80.30;;;;;;5020568;28;20030;-96
2023/10/04 09:04:27;;;;;;;2.42;1.33;;;18.70;80.20;;;;;;5012662;28;20124;-94
2023/10/04 09:07:03;;;;;;;3.00;1.20;;;18.70;80.30;;;;;;5021606;28;20006;-93
2023/10/04 09:13:14;;;;;;;4.85;1.25;;;18.40;80.10;;;;;;4943554;28;20024;-94
2023/10/04 09:15:50;;;;;;;2.10;1.00;;;18.70;80.30;;;;;;4933516;29;20036;-95
2023/10/04 09:18:30;;;;;;;3.28;1.42;;;18.70;80.10;;;;;;4907406;29;20583;-96
2023/10/04 09:24:52;;;;;;;2.55;1.20;;;18.70;80.30;;;;;;4934353;28;20080;-96
2023/10/04 09:27:18;;;;;;;2.92;1.27;;;18.70;80.30;;;;;;4913519;29;20451;-84
2023/10/04 09:29:45;;;;;;;3.45;1.38;;;18.60;76.50;;;;;;4922946;29;20129;-82
2023/10/04 09:32:10;;;;;;;2.67;1.20;;;18.40;75.10;;;;;;4919869;29;20039;-85
2023/10/04 09:34:36;;;;;;;6.05;1.27;;;18.30;74.80;;;;;;4922401;29;20031;-83
2023/10/04 09:37:17;;;;;;;4.07;1.75;;;18.30;73.20;;;;;;4920323;29;20044;-83
2023/10/04 09:39:42;;;;;;;5.00;1.45;;;18.30;74.00;;;;;;4920855;29;20111;-83
2023/10/04 09:42:14;;;;;;;2.30;1.20;;;18.30;73.50;;;;;;4920212;29;20188;-82
2023/10/04 09:44:40;;;;;;;1.85;1.10;;;18.30;72.90;;;;;;4921071;29;20091;-83
2023/10/04 09:47:07;;;;;;;3.75;1.55;;;18.30;71.90;;;;;;4917728;29;20198;-83
2023/10/04 09:49:36;;;;;;;4.38;1.58;;;18.20;72.80;;;;;;4977655;28;20041;-88
2023/10/04 09:52:12;;;;;;;3.40;1.23;;;18.30;72.70;;;;;;5017687;28;20046;-82
2023/10/04 09:54:38;;;;;;;3.92;1.45;;;18.30;72.30;;;;;;5018606;28;20367;-81
2023/10/04 09:57:14;;;;;;;8.98;1.40;;;18.20;70.90;;;;;;5020006;28;20079;-81
2023/10/04 09:59:43;;;;;;;2.67;1.30;;;18.00;68.80;;;;;;5018619;28;20021;-82
2023/10/04 10:02:10;;;;;;;2.42;1.23;;;18.10;69.60;;;;;;5016565;28;20026;-82
2023/10/04 10:04:46;;;;;;;2.20;1.27;;;18.10;69.60;;;;;;5023675;28;20021;-82
2023/10/04 10:07:16;;;;;;;3.90;1.02;;;18.20;71.10;;;;;;5000107;28;20044;-81
2023/10/04 10:10:18;;;;;;;3.15;1.15;;;18.30;70.80;;;;;;5014451;28;20038;-82
2023/10/04 10:12:45;;;;;;;5.57;1.40;;;18.20;69.40;;;;;;4939326;28;20134;-82
2023/10/04 10:15:13;;;;;;;4.35;1.50;;;18.20;69.30;;;;;;4937471;28;20044;-82
2023/10/04 10:17:40;;;;;;;3.38;1.40;;;18.20;69.40;;;;;;4936523;28;20023;-82
2023/10/04 10:20:11;;;;;;;4.18;1.38;;;18.30;70.20;;;;;;4941841;28;20039;-82
2023/10/04 10:22:57;;;;;;;1.65;1.17;;;18.30;70.30;;;;;;4943023;29;20023;-81
2023/10/04 10:25:25;;;;;;;1.75;1.23;;;18.10;66.60;;;;;;4944676;28;20656;-82
2023/10/04 10:27:55;;;;;;;5.28;1.40;;;18.10;68.20;;;;;;4940027;28;20040;-82
2023/10/04 10:30:21;;;;;;;;;;;18.10;67.90;;;;;;4936644;28;20087;-81
2023/10/04 10:32:54;;;;;;;3.80;1.40;;;18.10;67.20;;;;;;4942006;28;20090;-81
2023/10/04 10:35:54;;;;;;;3.92;1.45;;;18.10;66.00;;;;;;4940253;28;20036;-82
2023/10/04 10:38:31;;;;;;;3.20;1.50;;;18.10;67.30;;;;;;4939720;28;20024;-82
2023/10/04 10:40:56;;;;;;;3.03;1.55;;;18.10;66.90;;;;;;4942457;28;20388;-81
2023/10/04 10:43:22;;;;;;;2.63;1.05;;;18.10;65.80;;;;;;4934107;28;20027;-83
2023/10/04 10:45:48;;;;;;;2.55;1.08;;;18.10;66.60;;;;;;4943743;28;20155;-83
2023/10/04 10:48:14;;;;;;;4.63;1.55;;;18.30;67.00;;;;;;5023429;28;20082;-82
2023/10/04 10:50:43;;;;;;;4.47;1.65;;;18.30;66.60;;;;;;5017417;28;20029;-82
2023/10/04 10:53:10;;;;;;;4.97;1.17;;;18.30;66.70;;;;;;5019159;28;20526;-82
2023/10/04 10:55:40;;;;;;;3.22;1.50;;;18.30;65.00;;;;;;5024102;28;20037;-82
2023/10/04 10:58:07;;;;;;;3.53;1.10;;;18.30;65.00;;;;;;5016075;28;20432;-82
2023/10/04 11:00:36;;;;;;;2.47;1.35;;;18.30;65.80;;;;;;5014766;28;20116;-82
2023/10/04 11:03:05;;;;;;;1.65;0.98;;;18.30;66.00;;;;;;5022627;28;20044;-82
2023/10/04 11:05:31;;;;;;;4.05;1.48;;;18.40;66.00;;;;;;5007601;28;20481;-82
2023/10/04 11:07:57;;;;;;;2.35;1.13;;;18.40;65.70;;;;;;5019700;28;20026;-83
2023/10/04 11:10:25;;;;;;;2.15;1.20;;;18.40;65.40;;;;;;5022264;28;20025;-83
2023/10/04 11:12:54;;;;;;;1.60;0.95;;;18.40;65.40;;;;;;5014495;28;20028;-82
2023/10/04 11:15:23;;;;;;;3.33;1.40;;;18.40;65.50;;;;;;5014272;28;20101;-82
2023/10/04 11:17:52;;;;;;;2.33;1.20;;;18.30;64.30;;;;;;5018757;28;20061;-83
2023/10/04 11:20:17;;;;;;;1.95;1.20;;;18.40;65.10;;;;;;5017954;28;20053;-82
2023/10/04 11:22:45;;;;;;;4.93;1.50;;;18.50;63.90;;;;;;5020688;28;20343;-82
2023/10/04 11:25:13;;;;;;;3.67;1.13;;;18.50;64.60;;;;;;5022884;28;20021;-82
2023/10/04 11:27:42;;;;;;;5.03;1.73;;;18.40;65.20;;;;;;5020912;28;20226;-82
2023/10/04 11:30:10;;;;;;;4.47;1.40;;;18.50;65.00;;;;;;5028183;28;20037;-83
2023/10/04 11:32:39;;;;;;;3.38;1.23;;;18.50;65.40;;;;;;5003499;28;20585;-82
2023/10/04 11:35:08;;;;;;;4.60;1.30;;;18.60;65.50;;;;;;5019393;28;20026;-83
2023/10/04 11:37:44;;;;;;;2.70;1.40;;;18.50;65.20;;;;;;5028300;28;20025;-81
2023/10/04 11:40:11;;;;;;;4.15;1.50;;;18.60;64.30;;;;;;5021076;28;20380;-82
2023/10/04 11:42:38;;;;;;;2.97;1.20;;;18.50;64.00;;;;;;5027920;28;20025;-82
2023/10/04 11:45:20;;;;;;;7.30;1.52;;;18.50;63.80;;;;;;5027934;28;20021;-83
2023/10/04 11:48:00;;;;;;;3.15;1.58;;;18.60;64.40;;;;;;5021101;28;20018;-82
2023/10/04 11:50:45;;;;;;;1.67;1.02;;;18.70;64.40;;;;;;5018193;28;20694;-82
2023/10/04 11:53:14;;;;;;;4.15;1.40;;;18.70;64.40;;;;;;5021519;28;20026;-82
2023/10/04 11:55:40;;;;;;;7.47;1.42;;;18.70;64.30;;;;;;5019867;28;20028;-82
2023/10/04 11:58:07;;;;;;;4.68;1.52;;;18.70;63.80;;;;;;4997876;28;20034;-83
2023/10/04 12:00:32;;;;;;;2.63;1.10;;;18.70;64.40;;;;;;5022152;28;20029;-82
2023/10/04 12:03:01;;;;;;;7.30;1.40;;;18.80;64.80;;;;;;5020093;28;20030;-82
2023/10/04 12:05:27;;;;;;;3.33;1.33;;;18.80;64.00;;;;;;5021476;28;20485;-81
2023/10/04 12:07:58;;;;;;;2.72;1.27;;;18.70;62.50;;;;;;5024330;28;20029;-82
2023/10/04 12:10:27;;;;;;;4.22;1.38;;;18.80;64.70;;;;;;5022751;28;20486;-82
2023/10/04 12:12:55;;;;;;;3.97;0.98;;;18.80;63.90;;;;;;5025055;28;20033;-82
2023/10/04 12:15:21;;;;;;;5.75;1.50;;;18.80;63.50;;;;;;5029969;28;20029;-83
2023/10/04 12:17:48;;;;;;;3.53;1.17;;;18.80;62.20;;;;;;5028197;28;20461;-83
2023/10/04 12:20:13;;;;;;;2.97;1.20;;;18.80;62.30;;;;;;5018739;28;20022;-82
2023/10/04 12:22:39;;;;;;;3.38;1.10;;;18.80;63.40;;;;;;5028187;28;20013;-82
2023/10/04 12:25:05;;;;;;;3.42;1.30;;;18.80;63.00;;;;;;5019830;28;20084;-82
2023/10/04 12:27:31;;;;;;;4.70;1.33;;;18.80;62.20;;;;;;5015967;28;20022;-82
2023/10/04 12:29:57;;;;;;;3.65;1.35;;;18.80;63.10;;;;;;5022349;28;20056;-83
2023/10/04 12:32:23;;;;;;;4.85;1.25;;;18.80;64.10;;;;;;4999960;28;20030;-82
2023/10/04 12:34:48;;;;;;;2.83;1.35;;;18.80;64.10;;;;;;5018914;28;20083;-82
2023/10/04 12:37:14;;;;;;;4.28;1.27;;;18.80;63.30;;;;;;5021248;28;20033;-82
2023/10/04 12:39:43;;;;;;;2.97;1.58;;;18.80;64.20;;;;;;5018366;28;20504;-82
2023/10/04 12:42:09;;;;;;;8.48;1.35;;;18.80;62.80;;;;;;5019990;28;20018;-82
2023/10/04 12:44:37;;;;;;;2.97;1.30;;;18.80;61.90;;;;;;5024678;28;20009;-82
2023/10/04 12:47:03;;;;;;;3.47;1.50;;;18.80;63.20;;;;;;5018729;28;20017;-82
2023/10/04 12:49:29;;;;;;;6.85;1.80;;;18.80;64.00;;;;;;5021392;28;20045;-82
2023/10/04 12:51:55;;;;;;;2.08;1.35;;;18.90;63.90;;;;;;5021033;28;20091;-82
2023/10/04 12:54:23;;;;;;;1.45;1.05;;;18.90;64.40;;;;;;5018458;28;20133;-82
2023/10/04 12:56:51;;;;;;;7.40;1.40;;;18.90;63.00;;;;;;5020819;28;20109;-82
2023/10/04 12:59:19;;;;;;;4.55;1.30;;;18.80;63.60;;;;;;5020927;28;20026;-82
2023/10/04 13:01:48;;;;;;;4.63;1.13;;;18.80;64.00;;;;;;5019386;28;20486;-83
2023/10/04 13:04:13;;;;;;;6.68;1.27;;;18.90;63.70;;;;;;5019373;28;20053;-81
2023/10/04 13:06:39;;;;;;;2.50;1.30;;;18.80;62.50;;;;;;5018454;28;20448;-82
2023/10/04 13:09:14;;;;;;;1.88;1.05;;;18.80;61.60;;;;;;5018532;28;20045;-82
2023/10/04 13:11:40;;;;;;;2.70;1.00;;;18.80;62.50;;;;;;5015989;28;20057;-82
2023/10/04 13:14:05;;;;;;;4.60;1.45;;;18.80;61.80;;;;;;5022426;28;20054;-82
2023/10/04 13:16:33;;;;;;;2.10;1.00;;;18.80;62.90;;;;;;5017229;28;20025;-83
2023/10/04 13:18:58;;;;;;;4.45;1.23;;;18.80;62.50;;;;;;5007948;28;20486;-96
2023/10/04 13:21:24;;;;;;;3.92;1.40;;;18.80;62.20;;;;;;5004907;28;20033;-96
2023/10/04 13:23:50;;;;;;;7.15;1.42;;;18.80;62.60;;;;;;5015757;28;20026;-96
2023/10/04 13:26:16;;;;;;;2.85;1.33;;;18.80;63.80;;;;;;5014590;28;20021;-96
2023/10/04 13:28:43;;;;;;;2.40;1.20;;;18.80;64.40;;;;;;5024928;28;20094;-96
2023/10/04 13:31:15;;;;;;;4.65;1.38;;;18.90;64.80;;;;;;5004890;28;20030;-96
2023/10/04 13:33:48;;;;;;;7.00;1.60;;;18.80;64.80;;;;;;5032084;28;20025;-96
2023/10/04 13:36:14;;;;;;;2.95;1.20;;;18.80;65.40;;;;;;5018477;28;20057;-96
2023/10/04 13:38:47;;;;;;;1.85;1.10;;;18.80;65.70;;;;;;5020834;28;20046;-96
2023/10/04 13:41:13;;;;;;;7.45;1.30;;;18.80;65.30;;;;;;5018322;28;20022;-95
2023/10/04 13:43:51;;;;;;;4.97;1.08;;;18.90;65.60;;;;;;5022016;28;20052;-96
2023/10/04 13:46:45;;;;;;;4.43;1.40;;;18.90;65.70;;;;;;5016912;28;20053;-94
2023/10/04 13:49:18;;;;;;;3.20;1.10;;;18.80;65.90;;;;;;5019519;28;20045;-91
2023/10/04 13:52:27;;;;;;;1.70;1.13;;;18.90;66.30;;;;;;5026275;28;20248;-95
2023/10/04 13:54:52;;;;;;;5.75;1.75;;;18.90;66.70;;;;;;4985389;28;20046;-96
2023/10/04 13:57:57;;;;;;;6.63;1.52;;;18.90;66.90;;;;;;5030479;28;20093;-96
2023/10/04 14:04:36;;;;;;;3.33;1.13;;;18.90;67.20;;;;;;4976231;28;20034;-96
2023/10/04 14:13:54;;;;;;;4.22;1.27;;;18.80;68.40;;;;;;4836549;29;20072;-96
2023/10/04 14:16:51;;;;;;;2.30;0.90;;;18.80;68.50;;;;;;4830004;29;20030;-96
2023/10/04 14:19:17;;;;;;;3.30;1.25;;;18.80;68.90;;;;;;4843682;29;20476;-96
2023/10/04 14:21:42;;;;;;;2.72;1.33;;;18.80;68.90;;;;;;4825377;29;20039;-96
2023/10/04 14:24:08;;;;;;;4.03;1.23;;;18.80;69.10;;;;;;4822818;29;20030;-95
2023/10/04 14:27:13;;;;;;;2.00;1.10;;;18.80;69.10;;;;;;4813685;29;20603;-96
2023/10/04 14:29:49;;;;;;;1.60;1.00;;;18.80;69.20;;;;;;4825355;29;20026;-96
2023/10/04 14:32:49;;;;;;;6.32;1.45;;;18.80;69.30;;;;;;4840177;29;20045;-96
2023/10/04 14:35:27;;;;;;;5.75;1.63;;;18.80;69.50;;;;;;4815505;29;20080;-96
2023/10/04 14:38:12;;;;;;;2.00;1.30;;;18.80;69.70;;;;;;4828715;29;20046;-96
2023/10/04 14:44:05;;;;;;;4.05;1.30;;;18.80;69.90;;;;;;4965936;28;20044;-96
2023/10/04 14:46:32;;;;;;;2.83;1.33;;;18.80;70.70;;;;;;5025583;28;20057;-94
2023/10/04 14:55:25;;;;;;;2.53;1.30;;;18.80;70.20;;;;;;5035234;28;20114;-96
2023/10/04 14:57:54;;;;;;;1.57;1.10;;;18.80;70.40;;;;;;5020672;28;20049;-96
2023/10/04 15:00:20;;;;;;;2.28;1.30;;;18.80;70.40;;;;;;5022760;28;20021;-96
2023/10/04 15:02:46;;;;;;;1.73;1.15;;;18.80;70.50;;;;;;5023218;28;20504;-96
2023/10/04 15:05:17;;;;;;;1.70;1.15;;;18.80;70.60;;;;;;5011038;28;20040;-94
2023/10/04 15:07:52;;;;;;;2.20;1.23;;;18.80;70.60;;;;;;5023369;28;20443;-96
2023/10/04 15:10:19;;;;;;;1.98;1.23;;;18.80;70.70;;;;;;5022176;28;20139;-96
2023/10/04 15:13:15;;;;;;;2.97;1.33;;;18.80;70.70;;;;;;5022769;28;20037;-96
2023/10/04 15:15:55;;;;;;;6.88;1.65;;;18.80;70.90;;;;;;5022175;28;20041;-95
2023/10/04 15:18:46;;;;;;;5.28;1.42;;;18.80;71.00;;;;;;5020462;28;20029;-96
2023/10/04 15:31:53;;;;;;;4.93;1.67;;;18.80;71.30;;;;;;5003128;28;20186;-95
2023/10/04 15:34:18;;;;;;;5.22;1.58;;;18.80;71.30;;;;;;4983546;28;20561;-96
2023/10/04 15:37:10;;;;;;;3.80;1.30;;;18.80;71.50;;;;;;4995439;28;20180;-95
2023/10/04 15:39:36;;;;;;;6.53;1.40;;;18.80;71.40;;;;;;4983637;28;20030;-96
2023/10/04 15:42:46;;;;;;;3.63;1.30;;;18.80;71.10;;;;;;4976257;28;20018;-96
2023/10/04 15:45:38;;;;;;;2.42;1.25;;;18.80;71.00;;;;;;4932896;29;20032;-96
2023/10/04 15:48:57;;;;;;;7.20;1.40;;;18.80;71.10;;;;;;4930319;29;20119;-93
2023/10/04 15:59:06;;;;;;;;;;;;;;;;;;;;;
2023/10/04 16:25:16;;;;;;;6.90;1.30;;;18.80;71.90;;;;;;4800891;29;20038;-81
2023/10/04 16:27:46;;;;;;;13.65;1.75;;;18.70;71.90;;;;;;4796897;29;20031;-81
2023/10/04 16:30:14;;;;;;;;;;;18.50;68.00;;;;;;4788567;29;20093;-81
2023/10/04 16:32:46;;;;;;;6.13;1.90;;;18.40;67.30;;;;;;4859468;29;19948;-81
2023/10/04 16:35:15;;;;;;;14.50;2.15;;;18.30;67.20;;;;;;4869111;29;20045;-81
2023/10/04 16:37:42;;;;;;;5.15;2.03;;;18.20;66.80;;;;;;4882278;29;20049;-81
2023/10/04 16:40:12;;;;;;;4.88;2.00;;;18.20;67.10;;;;;;4880163;29;20061;-83
2023/10/04 16:42:39;;;;;;;8.38;2.13;;;18.10;67.20;;;;;;4890799;29;20066;-81
2023/10/04 16:45:05;;;;;;;4.43;1.77;;;18.10;67.80;;;;;;4881749;29;20386;-81
2023/10/04 16:47:31;;;;;;;9.07;1.90;;;18.10;67.50;;;;;;4882353;29;20033;-81
2023/10/04 16:49:57;;;;;;;5.32;1.92;;;18.10;67.40;;;;;;4888589;29;20055;-82
2023/10/04 16:52:23;;;;;;;8.88;1.90;;;18.10;68.00;;;;;;4884234;29;20032;-81
2023/10/04 16:54:51;;;;;;;4.45;1.65;;;18.10;68.10;;;;;;4927246;28;20582;-82
2023/10/04 16:57:17;;;;;;;7.22;1.60;;;18.00;68.10;;;;;;4980331;28;20071;-82
2023/10/04 16:59:44;;;;;;;11.82;3.65;;;18.00;68.20;;;;;;4977045;28;20041;-83
2023/10/04 17:02:10;;;;;;;18.45;6.25;;;17.90;68.00;;;;;;4990204;28;20022;-96
2023/10/04 17:04:35;;;;;;;12.60;3.83;;;18.00;68.40;;;;;;4999497;28;20027;-96
2023/10/04 17:07:01;;;;;;;4.82;2.63;;;18.10;68.30;;;;;;4976425;28;20049;-95
2023/10/04 17:09:27;;;;;;;6.43;2.83;;;18.20;68.20;;;;;;4976722;28;20030;-96
2023/10/04 17:11:53;;;;;;;11.10;5.05;;;18.30;68.30;;;;;;4998404;28;20041;-96
2023/10/04 17:14:20;;;;;;;10.50;5.53;;;18.30;68.40;;;;;;4993278;28;20030;-90
2023/10/04 17:16:46;;;;;;;16.40;6.47;;;18.30;68.50;;;;;;4980264;28;20025;-96
2023/10/04 17:19:12;;;;;;;12.05;3.70;;;18.30;68.60;;;;;;4985873;28;20081;-94
2023/10/04 17:21:59;;;;;;;4.70;2.70;;;18.40;68.80;;;;;;4992528;28;20030;-96
2023/10/04 17:35:22;;;;;;;;;;;;;;;;;;;;;
2023/10/04 17:48:56;;;;;;;8.52;1.90;;;18.40;69.90;;;;;;4955414;28;20063;-96
2023/10/04 17:58:27;;;;;;;8.50;1.65;;;18.40;70.30;;;;;;4884325;29;20195;-96
2023/10/04 18:01:15;;;;;;;4.22;1.60;;;18.40;70.40;;;;;;4866658;29;20048;-95
2023/10/04 18:07:40;;;;;;;11.80;2.88;;;18.10;70.50;;;;;;4842271;29;20035;-96
2023/10/04 18:10:35;;;;;;;7.88;3.40;;;18.50;70.80;;;;;;4827401;29;20185;-92
2023/10/04 18:13:56;;;;;;;7.97;2.70;;;18.40;70.80;;;;;;4824121;29;20039;-95
2023/10/04 18:16:33;;;;;;;6.07;3.10;;;18.40;70.80;;;;;;4829568;29;20057;-96
2023/10/04 18:19:25;;;;;;;8.80;2.40;;;18.40;71.80;;;;;;4817954;29;20042;-96
2023/10/04 18:22:44;;;;;;;7.45;2.92;;;18.10;70.80;;;;;;4885787;29;20131;-96
2023/10/04 18:25:49;;;;;;;3.67;2.03;;;18.40;71.00;;;;;;4906794;29;20028;-96
2023/10/04 18:28:21;;;;;;;8.93;2.30;;;18.40;71.20;;;;;;4903830;29;20104;-96
2023/10/04 18:34:39;;;;;;;4.85;2.30;;;18.50;71.30;;;;;;4932103;29;20040;-96
2023/10/04 18:37:42;;;;;;;5.35;1.90;;;18.50;72.20;;;;;;4924550;29;20028;-96
2023/10/04 18:40:31;;;;;;;7.90;2.97;;;18.40;71.50;;;;;;4964398;28;20031;-96
2023/10/04 18:43:27;;;;;;;13.25;3.70;;;18.40;71.60;;;;;;4987561;28;20039;-96
2023/10/04 18:46:21;;;;;;;10.57;3.30;;;18.50;71.60;;;;;;4999894;28;20042;-96
2023/10/04 18:53:06;;;;;;;9.32;2.90;;;18.40;71.70;;;;;;4868576;29;20029;-92
2023/10/04 18:55:57;;;;;;;6.72;2.38;;;18.50;71.70;;;;;;4898242;29;20353;-96
2023/10/04 18:58:49;;;;;;;12.00;2.50;;;18.50;71.80;;;;;;4901167;29;20036;-96
2023/10/04 19:01:51;;;;;;;7.88;1.88;;;18.40;71.70;;;;;;4914770;29;20570;-93
2023/10/04 19:04:23;;;;;;;12.82;2.50;;;18.40;71.80;;;;;;4895952;29;20039;-96
2023/10/04 19:07:19;;;;;;;7.85;1.92;;;18.40;71.80;;;;;;4905394;29;20132;-96
2023/10/04 19:10:08;;;;;;;7.50;1.83;;;18.40;71.80;;;;;;4888525;29;20052;-95
2023/10/04 19:13:05;;;;;;;5.57;1.52;;;18.40;72.00;;;;;;4941242;29;20099;-96
2023/10/04 19:15:37;;;;;;;12.05;2.50;;;18.40;72.00;;;;;;4940420;29;20039;-96
2023/10/04 19:18:25;;;;;;;6.88;1.88;;;18.40;72.00;;;;;;4932579;29;20031;-96
2023/10/04 19:21:09;;;;;;;3.33;1.90;;;18.50;72.10;;;;;;4929036;29;20063;-95
2023/10/04 19:23:55;;;;;;;6.07;1.90;;;18.40;72.10;;;;;;4942673;29;20028;-96
2023/10/04 19:26:33;;;;;;;4.50;1.95;;;18.50;72.20;;;;;;4943024;29;20144;-96
2023/10/04 19:29:15;;;;;;;7.82;2.45;;;18.50;72.20;;;;;;4993289;28;20041;-96
2023/10/04 19:32:08;;;;;;;3.80;1.85;;;17.90;71.90;;;;;;5038930;28;20060;-96
2023/10/04 19:34:44;;;;;;;6.85;2.13;;;18.50;72.40;;;;;;5023469;28;20113;-96
2023/10/04 19:37:17;;;;;;;6.00;2.42;;;18.40;72.20;;;;;;5043965;28;20043;-96
2023/10/04 19:40:10;;;;;;;6.90;2.05;;;18.40;72.30;;;;;;5021176;28;20026;-96
2023/10/04 19:42:40;;;;;;;5.38;2.25;;;18.30;72.30;;;;;;5030305;28;20033;-96
2023/10/04 19:45:24;;;;;;;9.60;2.60;;;18.40;72.40;;;;;;5030222;28;20017;-96
2023/10/04 19:48:09;;;;;;;3.72;2.30;;;18.50;72.50;;;;;;5028740;28;20040;-96
2023/10/04 19:50:44;;;;;;;6.93;2.28;;;18.80;72.70;;;;;;5028196;28;20045;-96
2023/10/04 19:53:11;;;;;;;4.55;1.98;;;18.50;72.50;;;;;;5028733;28;20036;-95
2023/10/04 19:55:37;;;;;;;7.32;2.58;;;18.40;72.50;;;;;;5029558;28;20373;-96
2023/10/04 19:58:16;;;;;;;8.20;1.95;;;18.40;72.50;;;;;;5029467;28;20040;-94
2023/10/04 20:00:49;;;;;;;12.07;2.25;;;18.40;72.60;;;;;;5029097;28;20026;-96
2023/10/04 20:03:17;;;;;;;3.75;2.10;;;18.40;72.50;;;;;;5030089;28;20029;-96
2023/10/04 20:05:46;;;;;;;5.57;2.40;;;18.40;72.70;;;;;;5032751;28;20056;-94
2023/10/04 20:08:24;;;;;;;14.60;2.17;;;18.40;72.60;;;;;;5039699;28;20022;-96
2023/10/04 20:10:50;;;;;;;4.00;1.85;;;18.50;72.70;;;;;;5043376;28;20033;-96
2023/10/04 20:13:43;;;;;;;4.05;2.08;;;18.40;72.60;;;;;;5064160;28;20063;-96
2023/10/04 20:16:15;;;;;;;7.15;1.75;;;18.30;72.70;;;;;;5039646;28;20503;-95
2023/10/04 20:18:48;;;;;;;6.57;1.92;;;18.70;72.80;;;;;;5040255;28;20055;-96
2023/10/04 20:21:14;;;;;;;6.88;2.00;;;18.40;72.60;;;;;;5043570;28;20092;-94
2023/10/04 20:23:40;;;;;;;9.07;2.00;;;18.50;72.70;;;;;;5037324;28;20089;-96
2023/10/04 20:26:15;;;;;;;15.90;2.13;;;18.40;72.60;;;;;;5045378;28;20021;-95
2023/10/04 20:28:46;;;;;;;6.80;2.03;;;18.40;72.70;;;;;;5045879;28;20025;-95
2023/10/04 20:31:19;;;;;;;16.63;5.20;;;18.40;72.70;;;;;;5038079;28;20041;-95
2023/10/04 20:33:46;;;;;;;35.83;12.20;;;18.40;72.70;;;;;;5043873;28;20036;-93
2023/10/04 20:36:12;;;;;;;28.00;8.38;;;18.40;72.70;;;;;;5044131;28;20817;-96
2023/10/04 20:38:39;;;;;;;38.17;9.88;;;18.40;72.60;;;;;;5036960;28;20021;-96
2023/10/04 20:41:05;;;;;;;149.73;32.58;;;18.40;72.70;;;;;;5046356;28;20021;-95
2023/10/04 20:43:33;;;;;;;37.40;11.02;;;18.40;73.40;;;;;;5061786;28;20016;-95
2023/10/04 20:45:59;;;;;;;215.13;44.60;;;18.40;72.70;;;;;;5048917;28;20017;-96
2023/10/04 20:48:25;;;;;;;236.00;60.40;;;18.40;72.70;;;;;;5031633;28;20107;-96
2023/10/04 20:50:52;;;;;;;105.22;30.67;;;18.40;72.60;;;;;;5057889;28;20072;-96
2023/10/04 20:53:21;;;;;;;15.20;5.75;;;18.40;72.60;;;;;;5056266;28;20029;-96
2023/10/04 20:55:47;;;;;;;7.87;3.47;;;18.40;72.60;;;;;;5042476;28;20018;-94
2023/10/04 20:58:21;;;;;;;10.57;4.68;;;18.40;72.70;;;;;;5039955;28;20028;-96
